createdAt,value
2017-06-29T00:01:12.814Z,17.12
2017-06-29T00:02:35.233Z,17.12
2017-06-29T00:03:57.064Z,17.11
2017-06-29T00:05:19.525Z,17.21
2017-06-29T00:06:41.770Z,17.18
2017-06-29T00:08:03.583Z,17.23
2017-06-29T00:09:25.764Z,17.26
2017-06-29T00:10:47.891Z,17.33
2017-06-29T00:12:10.033Z,17.31
2017-06-29T00:13:32.860Z,17.43
2017-06-29T00:14:54.775Z,17.43
2017-06-29T00:16:16.623Z,17.41
2017-06-29T00:17:38.755Z,17.55
2017-06-29T00:19:01.564Z,17.56
2017-06-29T00:20:23.721Z,17.56
2017-06-29T00:21:45.293Z,17.58
2017-06-29T00:23:07.122Z,17.62
2017-06-29T00:24:29.216Z,17.62
2017-06-29T00:25:51.035Z,17.55
2017-06-29T00:27:12.865Z,17.55
2017-06-29T00:28:34.980Z,17.52
2017-06-29T00:29:56.804Z,17.54
2017-06-29T00:31:19.254Z,17.54
2017-06-29T00:32:41.073Z,17.51
2017-06-29T00:34:03.218Z,17.58
2017-06-29T00:35:25.331Z,17.51
2017-06-29T00:36:47.778Z,17.49
2017-06-29T00:38:09.645Z,17.46
2017-06-29T00:39:31.940Z,17.48
2017-06-29T00:40:54.335Z,17.55
2017-06-29T00:42:16.140Z,17.54
2017-06-29T00:43:37.966Z,17.49
2017-06-29T00:45:00.405Z,17.51
2017-06-29T00:46:22.335Z,17.44
2017-06-29T00:47:44.257Z,17.46
2017-06-29T00:49:06.711Z,17.34
2017-06-29T00:50:29.164Z,17.28
2017-06-29T00:51:51.604Z,17.34
2017-06-29T00:53:14.044Z,17.44
2017-06-29T00:54:35.540Z,17.44
2017-06-29T00:55:57.684Z,17.49
2017-06-29T00:57:19.330Z,17.49
2017-06-29T00:58:41.454Z,17.55
2017-06-29T01:00:03.908Z,17.52
2017-06-29T01:01:26.034Z,17.56
2017-06-29T01:02:48.147Z,17.59
2017-06-29T01:04:09.965Z,17.66
2017-06-29T01:05:31.532Z,17.63
2017-06-29T01:06:53.734Z,17.55
2017-06-29T01:08:16.013Z,17.59
2017-06-29T01:09:37.566Z,17.55
2017-06-29T01:10:59.693Z,17.55
2017-06-29T01:12:21.959Z,17.66
2017-06-29T01:13:44.452Z,17.63
2017-06-29T01:15:06.738Z,17.62
2017-06-29T01:16:29.060Z,17.68
2017-06-29T01:17:51.184Z,17.68
2017-06-29T01:19:13.713Z,17.7
2017-06-29T01:20:35.207Z,17.64
2017-06-29T01:21:57.665Z,17.63
2017-06-29T01:23:19.559Z,17.49
2017-06-29T01:24:41.841Z,17.44
2017-06-29T01:26:03.650Z,17.46
2017-06-29T01:27:25.144Z,17.43
2017-06-29T01:28:47.606Z,17.4
2017-06-29T01:30:09.475Z,17.28
2017-06-29T01:31:31.612Z,17.34
2017-06-29T01:32:53.473Z,17.34
2017-06-29T01:34:15.347Z,17.26
2017-06-29T01:35:37.196Z,17.26
2017-06-29T01:36:59.345Z,17.3
2017-06-29T01:38:21.629Z,17.31
2017-06-29T01:39:44.079Z,17.28
2017-06-29T01:41:06.344Z,17.25
2017-06-29T01:42:28.273Z,17.3
2017-06-29T01:43:50.419Z,17.28
2017-06-29T01:45:11.911Z,17.3
2017-06-29T01:46:34.057Z,17.37
2017-06-29T01:47:55.554Z,17.28
2017-06-29T01:49:18.066Z,17.36
2017-06-29T01:50:40.194Z,17.26
2017-06-29T01:52:02.354Z,17.33
2017-06-29T01:53:24.485Z,17.34
2017-06-29T01:54:47.119Z,17.36
2017-06-29T01:56:09.287Z,17.19
2017-06-29T01:57:31.193Z,17.12
2017-06-29T01:58:53.074Z,17.04
2017-06-29T02:00:15.213Z,17.04
2017-06-29T02:01:36.875Z,16.97
2017-06-29T02:02:59.569Z,16.98
2017-06-29T02:04:22.031Z,16.96
2017-06-29T02:05:44.178Z,16.89
2017-06-29T02:07:06.325Z,16.75
2017-06-29T02:08:28.490Z,16.83
2017-06-29T02:09:49.994Z,16.82
2017-06-29T02:11:11.818Z,16.78
2017-06-29T02:12:33.632Z,16.67
2017-06-29T02:13:56.446Z,16.61
2017-06-29T02:15:18.929Z,16.63
2017-06-29T02:16:41.056Z,16.63
2017-06-29T02:18:02.556Z,16.66
2017-06-29T02:19:24.724Z,16.6
2017-06-29T02:20:46.866Z,16.67
2017-06-29T02:22:08.684Z,16.76
2017-06-29T02:23:30.875Z,16.85
2017-06-29T02:24:53.016Z,16.83
2017-06-29T02:26:15.149Z,17
2017-06-29T02:27:37.300Z,17.07
2017-06-29T02:28:59.429Z,17.07
2017-06-29T02:30:21.013Z,17.21
2017-06-29T02:31:43.514Z,17.14
2017-06-29T02:33:05.654Z,17.21
2017-06-29T02:34:27.458Z,17.26
2017-06-29T02:35:50.312Z,17.33
2017-06-29T02:37:12.114Z,17.33
2017-06-29T02:38:34.237Z,17.31
2017-06-29T02:39:56.435Z,17.46
2017-06-29T02:41:18.902Z,17.48
2017-06-29T02:42:40.403Z,17.43
2017-06-29T02:44:02.266Z,17.43
2017-06-29T02:45:24.407Z,17.46
2017-06-29T02:46:46.521Z,17.49
2017-06-29T02:48:07.716Z,17.52
2017-06-29T02:49:29.556Z,17.55
2017-06-29T02:50:51.681Z,17.49
2017-06-29T02:52:13.860Z,17.51
2017-06-29T02:53:35.666Z,17.55
2017-06-29T02:54:57.493Z,17.62
2017-06-29T02:56:18.774Z,17.59
2017-06-29T02:57:41.254Z,17.72
2017-06-29T02:59:03.498Z,17.7
2017-06-29T03:00:25.306Z,17.71
2017-06-29T03:01:46.804Z,17.63
2017-06-29T03:03:08.905Z,17.63
2017-06-29T03:04:30.724Z,17.62
2017-06-29T03:05:52.903Z,17.74
2017-06-29T03:07:14.399Z,17.75
2017-06-29T03:08:36.565Z,17.77
2017-06-29T03:09:58.811Z,17.87
2017-06-29T03:11:20.604Z,17.84
2017-06-29T03:12:42.740Z,17.92
2017-06-29T03:14:04.538Z,17.93
2017-06-29T03:15:26.412Z,17.97
2017-06-29T03:16:47.894Z,17.99
2017-06-29T03:18:10.003Z,17.95
2017-06-29T03:19:32.541Z,17.95
2017-06-29T03:20:54.789Z,17.99
2017-06-29T03:22:16.927Z,17.97
2017-06-29T03:23:38.790Z,17.95
2017-06-29T03:25:01.220Z,17.95
2017-06-29T03:26:23.095Z,17.99
2017-06-29T03:27:45.343Z,17.92
2017-06-29T03:29:07.355Z,17.92
2017-06-29T03:30:29.225Z,18.03
2017-06-29T03:31:51.366Z,17.95
2017-06-29T03:33:13.519Z,18
2017-06-29T03:34:35.765Z,18.03
2017-06-29T03:35:57.634Z,18.14
2017-06-29T03:37:19.754Z,18.08
2017-06-29T03:38:41.285Z,18.05
2017-06-29T03:40:03.084Z,18.1
2017-06-29T03:41:25.553Z,18.14
2017-06-29T03:42:47.070Z,18.03
2017-06-29T03:44:09.214Z,18.07
2017-06-29T03:45:31.403Z,18.14
2017-06-29T03:46:53.605Z,18.11
2017-06-29T03:48:14.521Z,18.1
2017-06-29T03:49:36.118Z,18.11
2017-06-29T03:50:58.553Z,18.08
2017-06-29T03:52:20.759Z,18.23
2017-06-29T03:53:42.881Z,18.2
2017-06-29T03:55:05.320Z,18.3
2017-06-29T03:56:27.156Z,18.27
2017-06-29T03:57:49.017Z,18.23
2017-06-29T03:59:10.826Z,18.26
2017-06-29T04:00:33.283Z,18.2
2017-06-29T04:01:55.085Z,18.25
2017-06-29T04:03:17.157Z,18.27
2017-06-29T04:04:39.292Z,18.25
2017-06-29T04:06:01.423Z,18.3
2017-06-29T04:07:22.735Z,18.29
2017-06-29T04:08:45.223Z,18.3
2017-06-29T04:10:07.134Z,18.25
2017-06-29T04:11:28.943Z,18.35
2017-06-29T04:12:51.095Z,18.36
2017-06-29T04:14:13.579Z,18.35
2017-06-29T04:15:35.520Z,18.47
2017-06-29T04:16:56.757Z,18.44
2017-06-29T04:18:18.564Z,18.35
2017-06-29T04:19:40.054Z,18.37
2017-06-29T04:21:01.552Z,18.48
2017-06-29T04:22:23.427Z,18.57
2017-06-29T04:23:45.881Z,18.63
2017-06-29T04:25:07.683Z,18.7
2017-06-29T04:26:30.140Z,18.67
2017-06-29T04:27:52.274Z,18.62
2017-06-29T04:29:14.412Z,18.62
2017-06-29T04:30:36.633Z,18.7
2017-06-29T04:31:58.444Z,18.67
2017-06-29T04:33:19.613Z,18.69
2017-06-29T04:34:40.791Z,18.81
2017-06-29T04:36:03.248Z,18.8
2017-06-29T04:37:25.374Z,18.88
2017-06-29T04:38:47.238Z,18.87
2017-06-29T04:40:09.375Z,18.82
2017-06-29T04:41:31.226Z,18.81
2017-06-29T04:42:53.154Z,18.67
2017-06-29T04:44:14.984Z,18.58
2017-06-29T04:45:36.802Z,18.66
2017-06-29T04:46:58.374Z,18.73
2017-06-29T04:48:20.225Z,18.9
2017-06-29T04:49:41.777Z,18.99
2017-06-29T04:51:03.898Z,19.04
2017-06-29T04:52:26.187Z,19.08
2017-06-29T04:53:48.316Z,19.14
2017-06-29T04:55:10.468Z,19.25
2017-06-29T04:56:32.315Z,19.26
2017-06-29T04:57:53.815Z,19.28
2017-06-29T04:59:16.255Z,19.36
2017-06-29T05:00:38.101Z,19.37
2017-06-29T05:01:59.296Z,19.41
2017-06-29T05:03:22.052Z,19.51
2017-06-29T05:04:44.186Z,19.56
2017-06-29T05:06:06.013Z,19.62
2017-06-29T05:07:27.854Z,19.59
2017-06-29T05:08:49.939Z,19.59
2017-06-29T05:10:11.743Z,19.66
2017-06-29T05:11:33.562Z,19.76
2017-06-29T05:12:55.081Z,19.86
2017-06-29T05:14:17.550Z,19.95
2017-06-29T05:15:39.686Z,19.95
2017-06-29T05:17:01.678Z,19.98
2017-06-29T05:18:24.215Z,20.08
2017-06-29T05:19:46.957Z,20.08
2017-06-29T05:21:09.362Z,20.06
2017-06-29T05:22:31.587Z,20.08
2017-06-29T05:23:53.741Z,20.11
2017-06-29T05:25:15.954Z,20.06
2017-06-29T05:26:38.093Z,20.1
2017-06-29T05:28:00.247Z,20.08
2017-06-29T05:29:22.398Z,20.03
2017-06-29T05:30:45.315Z,20.05
2017-06-29T05:32:07.476Z,20.02
2017-06-29T05:33:29.311Z,20.06
2017-06-29T05:34:51.785Z,20.06
2017-06-29T05:36:14.521Z,20.05
2017-06-29T05:37:36.343Z,19.96
2017-06-29T05:38:57.915Z,19.62
2017-06-29T05:40:19.530Z,19.63
2017-06-29T05:41:41.958Z,19.74
2017-06-29T05:43:03.563Z,19.68
2017-06-29T05:44:25.061Z,19.61
2017-06-29T05:45:47.237Z,19.71
2017-06-29T05:47:09.303Z,19.69
2017-06-29T05:48:31.136Z,19.71
2017-06-29T05:49:52.995Z,19.94
2017-06-29T05:51:14.820Z,19.98
2017-06-29T05:52:37.324Z,20.11
2017-06-29T05:53:59.774Z,20.18
2017-06-29T05:55:22.248Z,20.33
2017-06-29T05:56:44.055Z,20.47
2017-06-29T05:58:05.853Z,20.38
2017-06-29T05:59:27.964Z,20.39
2017-06-29T06:00:49.475Z,20.28
2017-06-29T06:02:11.719Z,20.05
2017-06-29T06:03:34.553Z,19.96
2017-06-29T06:04:56.489Z,19.8
2017-06-29T06:06:19.009Z,19.71
2017-06-29T06:07:40.523Z,19.41
2017-06-29T06:09:02.874Z,19.33
2017-06-29T06:10:25.022Z,19.37
2017-06-29T06:11:47.469Z,19.66
2017-06-29T06:13:09.293Z,19.73
2017-06-29T06:14:32.205Z,19.76
2017-06-29T06:15:54.064Z,19.68
2017-06-29T06:17:16.199Z,19.74
2017-06-29T06:18:38.362Z,19.88
2017-06-29T06:20:00.874Z,20.02
2017-06-29T06:21:23.124Z,20.17
2017-06-29T06:22:45.247Z,20.43
2017-06-29T06:24:07.079Z,20.64
2017-06-29T06:25:29.570Z,20.79
2017-06-29T06:26:51.745Z,20.92
2017-06-29T06:28:14.192Z,21.06
2017-06-29T06:29:36.002Z,21.13
2017-06-29T06:30:57.824Z,21.21
2017-06-29T06:32:19.634Z,21.21
2017-06-29T06:33:41.760Z,21.35
2017-06-29T06:35:03.939Z,21.4
2017-06-29T06:36:26.325Z,21.59
2017-06-29T06:37:48.774Z,21.65
2017-06-29T06:39:11.062Z,21.8
2017-06-29T06:40:33.523Z,21.96
2017-06-29T06:41:55.684Z,22.17
2017-06-29T06:43:17.635Z,22.22
2017-06-29T06:44:40.083Z,22.21
2017-06-29T06:46:02.213Z,22.31
2017-06-29T06:47:24.734Z,22.39
2017-06-29T06:48:46.246Z,22.24
2017-06-29T06:50:08.092Z,22.09
2017-06-29T06:51:29.913Z,22.09
2017-06-29T06:52:52.740Z,22.17
2017-06-29T06:54:14.596Z,22.47
2017-06-29T06:55:36.743Z,22.61
2017-06-29T06:56:58.692Z,22.77
2017-06-29T06:58:21.224Z,22.76
2017-06-29T06:59:43.394Z,22.58
2017-06-29T07:01:05.842Z,22.58
2017-06-29T07:02:27.716Z,22.37
2017-06-29T07:03:50.610Z,22.35
2017-06-29T07:05:12.441Z,22.51
2017-06-29T07:06:34.290Z,22.61
2017-06-29T07:07:56.170Z,22.61
2017-06-29T07:09:18.662Z,22.49
2017-06-29T07:10:40.495Z,22.67
2017-06-29T07:12:02.404Z,22.73
2017-06-29T07:13:24.551Z,22.75
2017-06-29T07:14:47.444Z,22.88
2017-06-29T07:16:09.607Z,22.77
2017-06-29T07:17:31.786Z,22.61
2017-06-29T07:18:53.936Z,22.57
2017-06-29T07:20:16.441Z,22.67
2017-06-29T07:21:38.973Z,22.82
2017-06-29T07:23:00.475Z,22.91
2017-06-29T07:24:22.962Z,23.02
2017-06-29T07:25:45.143Z,23.13
2017-06-29T07:27:07.297Z,23.36
2017-06-29T07:28:29.119Z,23.63
2017-06-29T07:29:51.251Z,23.88
2017-06-29T07:31:13.885Z,24.18
2017-06-29T07:32:36.145Z,24.31
2017-06-29T07:33:58.024Z,24.4
2017-06-29T07:35:20.173Z,24.52
2017-06-29T07:36:42.064Z,24.55
2017-06-29T07:38:04.555Z,24.68
2017-06-29T07:39:26.694Z,24.68
2017-06-29T07:40:49.087Z,24.69
2017-06-29T07:42:11.593Z,24.69
2017-06-29T07:43:33.764Z,25.1
2017-06-29T07:44:56.224Z,25.39
2017-06-29T07:46:17.797Z,25.57
2017-06-29T07:47:39.915Z,25.73
2017-06-29T07:49:02.367Z,25.88
2017-06-29T07:50:24.546Z,25.87
2017-06-29T07:51:46.371Z,25.91
2017-06-29T07:53:08.536Z,25.88
2017-06-29T07:54:30.754Z,25.99
2017-06-29T07:55:52.713Z,26.02
2017-06-29T07:57:14.566Z,26.33
2017-06-29T07:58:37.068Z,26.55
2017-06-29T07:59:59.003Z,27.06
2017-06-29T08:01:21.217Z,27.18
2017-06-29T08:02:43.459Z,27.18
2017-06-29T08:04:05.952Z,27.06
2017-06-29T08:05:27.785Z,26.77
2017-06-29T08:06:49.946Z,26.84
2017-06-29T08:08:11.771Z,27.13
2017-06-29T08:09:34.286Z,27.19
2017-06-29T08:10:56.440Z,27.6
2017-06-29T08:12:18.994Z,27.9
2017-06-29T08:13:40.905Z,27.97
2017-06-29T08:15:03.073Z,27.96
2017-06-29T08:16:24.906Z,27.79
2017-06-29T08:17:46.893Z,27.72
2017-06-29T08:19:09.135Z,27.59
2017-06-29T08:20:31.988Z,27.22
2017-06-29T08:21:54.445Z,27.13
2017-06-29T08:23:16.331Z,26.8
2017-06-29T08:24:38.163Z,26.77
2017-06-29T08:25:59.930Z,26.84
2017-06-29T08:27:21.911Z,27.09
2017-06-29T08:28:44.388Z,27.37
2017-06-29T08:30:06.945Z,27.69
2017-06-29T08:31:29.443Z,28.02
2017-06-29T08:32:50.963Z,28.09
2017-06-29T08:34:13.550Z,28.15
2017-06-29T08:35:35.699Z,28.37
2017-06-29T08:36:58.177Z,28.48
2017-06-29T08:38:19.813Z,28.88
2017-06-29T08:39:41.976Z,29.05
2017-06-29T08:41:04.500Z,29.41
2017-06-29T08:42:26.577Z,29.68
2017-06-29T08:43:48.081Z,29.78
2017-06-29T08:45:10.033Z,29.74
2017-06-29T08:46:31.870Z,29.82
2017-06-29T08:47:54.580Z,29.58
2017-06-29T08:49:16.723Z,29.14
2017-06-29T08:50:39.210Z,29
2017-06-29T08:52:01.358Z,28.7
2017-06-29T08:53:24.323Z,28.58
2017-06-29T08:54:46.144Z,28.61
2017-06-29T08:56:08.601Z,28.58
2017-06-29T08:57:30.408Z,28.62
2017-06-29T08:58:52.914Z,28.76
2017-06-29T09:00:15.394Z,28.77
2017-06-29T09:01:37.876Z,27.39
2017-06-29T09:03:00.342Z,27.24
2017-06-29T09:04:21.842Z,27.62
2017-06-29T09:05:43.982Z,27.79
2017-06-29T09:07:06.139Z,26.66
2017-06-29T09:08:28.604Z,26.97
2017-06-29T09:09:51.165Z,27.34
2017-06-29T09:11:13.641Z,27.49
2017-06-29T09:12:35.603Z,27.57
2017-06-29T09:13:57.755Z,27.21
2017-06-29T09:15:20.575Z,27.4
2017-06-29T09:16:42.421Z,27.78
2017-06-29T09:18:04.579Z,27.74
2017-06-29T09:19:26.414Z,26.8
2017-06-29T09:20:48.854Z,25.67
2017-06-29T09:22:10.398Z,26.4
2017-06-29T09:23:32.221Z,27.18
2017-06-29T09:24:54.381Z,27.12
2017-06-29T09:26:16.484Z,27.5
2017-06-29T09:27:39.059Z,27.57
2017-06-29T09:29:01.224Z,27.79
2017-06-29T09:30:23.065Z,28
2017-06-29T09:31:44.840Z,27.62
2017-06-29T09:33:06.983Z,27.85
2017-06-29T09:34:28.617Z,28.06
2017-06-29T09:35:50.913Z,28.33
2017-06-29T09:37:13.227Z,28.74
2017-06-29T09:38:34.745Z,28.9
2017-06-29T09:39:56.584Z,29.04
2017-06-29T09:41:18.472Z,28.61
2017-06-29T09:42:41.022Z,28.15
2017-06-29T09:44:03.172Z,27.88
2017-06-29T09:45:24.776Z,27.99
2017-06-29T09:46:47.096Z,28.39
2017-06-29T09:48:09.177Z,28.67
2017-06-29T09:49:31.382Z,28.98
2017-06-29T09:50:53.518Z,29.11
2017-06-29T09:52:15.402Z,29.19
2017-06-29T09:53:37.271Z,28.73
2017-06-29T09:54:59.728Z,27.55
2017-06-29T09:56:21.875Z,27.6
2017-06-29T09:57:44.345Z,27.43
2017-06-29T09:59:06.291Z,27.75
2017-06-29T10:00:28.454Z,27.88
2017-06-29T10:01:50.385Z,28.11
2017-06-29T10:03:12.855Z,27.5
2017-06-29T10:04:34.641Z,27.29
2017-06-29T10:05:56.523Z,26.7
2017-06-29T10:07:18.663Z,26.48
2017-06-29T10:08:41.123Z,26.67
2017-06-29T10:10:03.196Z,26.48
2017-06-29T10:11:25.353Z,26.85
2017-06-29T10:12:47.511Z,26.88
2017-06-29T10:14:09.133Z,27.47
2017-06-29T10:15:31.982Z,28.11
2017-06-29T10:16:53.505Z,27.74
2017-06-29T10:18:15.660Z,27.47
2017-06-29T10:19:38.161Z,26.66
2017-06-29T10:21:00.609Z,26.69
2017-06-29T10:22:23.171Z,26.87
2017-06-29T10:23:45.017Z,26.44
2017-06-29T10:25:07.144Z,27.06
2017-06-29T10:26:29.967Z,27.54
2017-06-29T10:27:52.128Z,28.07
2017-06-29T10:29:14.271Z,28.44
2017-06-29T10:30:36.411Z,28.68
2017-06-29T10:31:58.834Z,28.4
2017-06-29T10:33:20.655Z,27.72
2017-06-29T10:34:42.902Z,27.88
2017-06-29T10:36:04.421Z,27.82
2017-06-29T10:37:27.127Z,27.54
2017-06-29T10:38:49.673Z,27.94
2017-06-29T10:40:11.519Z,27.81
2017-06-29T10:41:33.803Z,28.06
2017-06-29T10:42:56.568Z,28.48
2017-06-29T10:44:18.800Z,28.66
2017-06-29T10:45:41.271Z,28.34
2017-06-29T10:47:02.794Z,28.9
2017-06-29T10:48:25.500Z,29.3
2017-06-29T10:49:47.965Z,29.78
2017-06-29T10:51:10.639Z,29.6
2017-06-29T10:52:32.772Z,29.79
2017-06-29T10:53:55.019Z,30.02
2017-06-29T10:55:17.248Z,28.61
2017-06-29T10:56:39.400Z,27.69
2017-06-29T10:58:00.922Z,28.02
2017-06-29T10:59:23.420Z,27.94
2017-06-29T11:00:45.614Z,28.55
2017-06-29T11:02:08.073Z,29.3
2017-06-29T11:03:30.623Z,29.78
2017-06-29T11:04:53.406Z,30.47
2017-06-29T11:06:15.861Z,30
2017-06-29T11:07:38.070Z,29.09
2017-06-29T11:09:00.224Z,28.24
2017-06-29T11:10:22.611Z,28.61
2017-06-29T11:11:44.873Z,29.04
2017-06-29T11:13:07.342Z,28.89
2017-06-29T11:14:29.471Z,28.83
2017-06-29T11:15:51.521Z,28.04
2017-06-29T11:17:13.708Z,27.79
2017-06-29T11:18:36.002Z,27.27
2017-06-29T11:19:57.831Z,27.31
2017-06-29T11:21:20.691Z,27.81
2017-06-29T11:22:42.861Z,27.84
2017-06-29T11:24:05.022Z,27.49
2017-06-29T11:25:27.199Z,27.94
2017-06-29T11:26:49.375Z,27.54
2017-06-29T11:28:11.225Z,27.88
2017-06-29T11:29:33.063Z,27.79
2017-06-29T11:30:54.903Z,27.87
2017-06-29T11:32:17.413Z,28.09
2017-06-29T11:33:38.925Z,27.37
2017-06-29T11:35:00.761Z,27.59
2017-06-29T11:36:22.927Z,27.79
2017-06-29T11:37:45.652Z,27.74
2017-06-29T11:39:07.611Z,27.43
2017-06-29T11:40:29.879Z,27.78
2017-06-29T11:41:52.353Z,28.34
2017-06-29T11:43:14.361Z,28.24
2017-06-29T11:44:36.220Z,28.34
2017-06-29T11:45:58.352Z,28.8
2017-06-29T11:47:20.552Z,28.96
2017-06-29T11:48:43.323Z,28.7
2017-06-29T11:50:05.811Z,28.61
2017-06-29T11:51:27.353Z,28.9
2017-06-29T11:52:49.233Z,29
2017-06-29T11:54:11.342Z,29.31
2017-06-29T11:55:33.478Z,29.73
2017-06-29T11:56:55.947Z,29.83
2017-06-29T11:58:18.211Z,29.98
2017-06-29T11:59:40.990Z,30.34
2017-06-29T12:01:03.442Z,30.64
2017-06-29T12:02:25.278Z,29.8
2017-06-29T12:03:46.800Z,29.8
2017-06-29T12:05:09.219Z,29.92
2017-06-29T12:06:31.679Z,29.9
2017-06-29T12:07:53.573Z,29.89
2017-06-29T12:09:15.733Z,29.58
2017-06-29T12:10:38.483Z,29.43
2017-06-29T12:12:00.612Z,29.34
2017-06-29T12:13:22.824Z,29.31
2017-06-29T12:14:44.797Z,28.18
2017-06-29T12:16:07.519Z,27.6
2017-06-29T12:17:29.678Z,27.62
2017-06-29T12:18:51.890Z,27.85
2017-06-29T12:20:14.022Z,28.33
2017-06-29T12:21:36.782Z,28.76
2017-06-29T12:22:59.015Z,27.6
2017-06-29T12:24:21.263Z,27.04
2017-06-29T12:25:43.082Z,27.06
2017-06-29T12:27:05.890Z,27.55
2017-06-29T12:28:28.059Z,28.25
2017-06-29T12:29:50.008Z,28.03
2017-06-29T12:31:12.281Z,28.07
2017-06-29T12:32:34.412Z,28.06
2017-06-29T12:33:56.940Z,27.41
2017-06-29T12:35:19.422Z,27.88
2017-06-29T12:36:41.707Z,28.41
2017-06-29T12:38:03.897Z,28.88
2017-06-29T12:39:26.044Z,29.16
2017-06-29T12:40:47.571Z,29.14
2017-06-29T12:42:09.090Z,29
2017-06-29T12:43:30.965Z,28.58
2017-06-29T12:44:53.123Z,28.49
2017-06-29T12:46:15.279Z,28.54
2017-06-29T12:47:37.092Z,28.12
2017-06-29T12:48:59.554Z,28.29
2017-06-29T12:50:21.688Z,27.88
2017-06-29T12:51:43.521Z,27.72
2017-06-29T12:53:05.720Z,27.93
2017-06-29T12:54:28.490Z,28.18
2017-06-29T12:55:50.123Z,28.29
2017-06-29T12:57:12.620Z,28.02
2017-06-29T12:58:33.872Z,27.66
2017-06-29T12:59:56.054Z,26.66
2017-06-29T13:01:18.282Z,27.25
2017-06-29T13:02:40.418Z,27.57
2017-06-29T13:04:02.232Z,27.79
2017-06-29T13:05:24.951Z,27.92
2017-06-29T13:06:47.252Z,27.94
2017-06-29T13:08:09.150Z,28.24
2017-06-29T13:09:31.292Z,28.81
2017-06-29T13:10:53.514Z,29.11
2017-06-29T13:12:15.639Z,29
2017-06-29T13:13:37.624Z,29.42
2017-06-29T13:14:59.492Z,29.65
2017-06-29T13:16:21.792Z,30.04
2017-06-29T13:17:43.931Z,30.26
2017-06-29T13:19:06.202Z,29.27
2017-06-29T13:20:28.444Z,27.77
2017-06-29T13:21:51.262Z,27.62
2017-06-29T13:23:12.463Z,27.78
2017-06-29T13:24:34.940Z,27.72
2017-06-29T13:25:57.129Z,27.21
2017-06-29T13:27:19.835Z,26.89
2017-06-29T13:28:41.361Z,26.57
2017-06-29T13:30:03.823Z,26.26
2017-06-29T13:31:25.979Z,26.43
2017-06-29T13:32:48.111Z,26.58
2017-06-29T13:34:10.262Z,26.77
2017-06-29T13:35:32.771Z,26.88
2017-06-29T13:36:54.676Z,26.88
2017-06-29T13:38:16.430Z,26.77
2017-06-29T13:39:39.120Z,26.57
2017-06-29T13:41:00.617Z,26.37
2017-06-29T13:42:22.446Z,26.4
2017-06-29T13:43:44.987Z,26.51
2017-06-29T13:45:07.122Z,26.6
2017-06-29T13:46:28.970Z,26.54
2017-06-29T13:47:51.292Z,26.6
2017-06-29T13:49:13.687Z,26.48
2017-06-29T13:50:36.246Z,26.26
2017-06-29T13:51:58.363Z,26.29
2017-06-29T13:53:20.539Z,26.15
2017-06-29T13:54:42.713Z,26.06
2017-06-29T13:56:04.532Z,25.91
2017-06-29T13:57:26.703Z,25.79
2017-06-29T13:58:48.859Z,25.62
2017-06-29T14:00:10.952Z,25.61
2017-06-29T14:01:33.407Z,25.65
2017-06-29T14:02:55.243Z,25.61
2017-06-29T14:04:17.421Z,25.52
2017-06-29T14:05:39.909Z,25.6
2017-06-29T14:07:01.732Z,25.54
2017-06-29T14:08:23.562Z,25.39
2017-06-29T14:09:45.408Z,25.08
2017-06-29T14:11:07.412Z,24.96
2017-06-29T14:12:29.659Z,25.06
2017-06-29T14:13:51.806Z,25.14
2017-06-29T14:15:14.278Z,25.15
2017-06-29T14:16:37.112Z,25.38
2017-06-29T14:17:59.341Z,25.51
2017-06-29T14:19:21.845Z,25.77
2017-06-29T14:20:44.003Z,25.94
2017-06-29T14:22:06.239Z,25.95
2017-06-29T14:23:28.421Z,25.99
2017-06-29T14:24:50.650Z,25.99
2017-06-29T14:26:12.169Z,26.06
2017-06-29T14:27:34.300Z,26.02
2017-06-29T14:28:56.446Z,25.88
2017-06-29T14:30:18.914Z,25.73
2017-06-29T14:31:40.436Z,25.61
2017-06-29T14:33:02.690Z,25.47
2017-06-29T14:34:24.943Z,25.5
2017-06-29T14:35:47.110Z,25.55
2017-06-29T14:37:09.604Z,25.39
2017-06-29T14:38:31.425Z,25.4
2017-06-29T14:39:53.900Z,25.35
2017-06-29T14:41:16.018Z,25.27
2017-06-29T14:42:38.641Z,25.21
2017-06-29T14:44:01.464Z,25.13
2017-06-29T14:45:23.903Z,25
2017-06-29T14:46:45.854Z,24.95
2017-06-29T14:48:08.322Z,24.95
2017-06-29T14:49:31.234Z,25.02
2017-06-29T14:50:53.373Z,24.99
2017-06-29T14:52:15.231Z,24.98
2017-06-29T14:53:36.435Z,25.03
2017-06-29T14:54:58.901Z,25.03
2017-06-29T14:56:21.401Z,25.05
2017-06-29T14:57:43.582Z,25.02
2017-06-29T14:59:05.118Z,25.06
2017-06-29T15:00:26.953Z,25.02
2017-06-29T15:01:49.412Z,24.84
2017-06-29T15:03:11.243Z,24.57
2017-06-29T15:04:33.065Z,24.47
2017-06-29T15:05:55.843Z,24.27
2017-06-29T15:07:17.983Z,23.85
2017-06-29T15:08:40.442Z,23.63
2017-06-29T15:10:02.942Z,23.33
2017-06-29T15:11:24.750Z,23.31
2017-06-29T15:12:47.319Z,23.13
2017-06-29T15:14:09.492Z,22.9
2017-06-29T15:15:32.052Z,22.88
2017-06-29T15:16:54.513Z,22.72
2017-06-29T15:18:16.960Z,22.7
2017-06-29T15:19:39.197Z,22.58
2017-06-29T15:21:01.764Z,22.52
2017-06-29T15:22:24.509Z,22.45
2017-06-29T15:23:45.722Z,22.36
2017-06-29T15:25:07.232Z,22.25
2017-06-29T15:26:29.420Z,22.24
2017-06-29T15:27:52.220Z,22.14
2017-06-29T15:29:14.105Z,22.03
2017-06-29T15:30:36.576Z,22.03
2017-06-29T15:31:59.201Z,22.06
2017-06-29T15:33:21.699Z,21.83
2017-06-29T15:34:43.844Z,21.74
2017-06-29T15:36:06.302Z,21.67
2017-06-29T15:37:28.554Z,21.53
2017-06-29T15:38:50.942Z,21.34
2017-06-29T15:40:13.386Z,21.21
2017-06-29T15:41:35.533Z,21.16
2017-06-29T15:42:57.663Z,20.62
2017-06-29T15:44:20.422Z,19.61
2017-06-29T15:45:42.869Z,19.33
2017-06-29T15:47:05.027Z,19.19
2017-06-29T15:48:27.474Z,19.29
2017-06-29T15:49:49.995Z,19.51
2017-06-29T15:51:11.842Z,19.51
2017-06-29T15:52:34.051Z,19.44
2017-06-29T15:53:56.211Z,19.4
2017-06-29T15:55:18.931Z,19.47
2017-06-29T15:56:40.437Z,19.37
2017-06-29T15:58:02.913Z,19.06
2017-06-29T15:59:24.831Z,19.11
2017-06-29T16:00:47.433Z,18.95
